createdAt,value
2023-04-04T07:53:47.989Z,54.78
2023-04-04T07:56:15.148Z,52.17
2023-04-04T08:09:47.363Z,47.66
2023-04-04T08:12:14.322Z,43.62
2023-04-04T08:14:41.640Z,46.71
2023-04-04T08:17:08.604Z,43.59
2023-04-04T08:19:35.731Z,42.94
2023-04-04T08:22:03.212Z,42.22
2023-04-04T08:24:30.096Z,40.36
2023-04-04T08:29:29.167Z,40.88
2023-04-04T08:31:56.125Z,42.92
2023-04-04T08:34:23.876Z,39.40
2023-04-04T08:36:50.809Z,40.49
2023-04-04T08:39:17.811Z,42.49
2023-04-04T08:41:46.258Z,41.48
2023-04-04T08:44:21.515Z,40.22
2023-04-04T08:46:49.627Z,40.61
2023-04-04T08:49:16.885Z,41.57
2023-04-04T08:51:45.335Z,39.78
2023-04-04T08:54:13.680Z,40.61
2023-04-04T08:56:40.679Z,39.83
2023-04-04T08:59:08.318Z,38.49
2023-04-04T09:01:35.508Z,36.82
2023-04-04T09:04:04.684Z,39.96
2023-04-04T09:06:32.324Z,39.13
2023-04-04T09:08:59.873Z,39.19
2023-04-04T09:11:27.584Z,39.37
2023-04-04T09:13:55.878Z,38.52
2023-04-04T09:16:23.950Z,38.99
2023-04-04T09:18:53.873Z,39.62
2023-04-04T09:21:20.791Z,39.48
2023-04-04T09:23:47.632Z,38.67
2023-04-04T09:26:14.820Z,38.13
2023-04-04T09:28:42.431Z,36.56
2023-04-04T09:31:10.336Z,36.91
2023-04-04T09:33:38.770Z,38.58
2023-04-04T09:36:10.460Z,38.12
2023-04-04T09:38:39.842Z,38.45
2023-04-04T09:41:10.005Z,37.66
2023-04-04T09:43:37.767Z,40.00
2023-04-04T09:46:05.857Z,40.68
2023-04-04T09:48:35.015Z,38.72
2023-04-04T09:51:06.071Z,38.63
2023-04-04T09:53:37.514Z,42.04
2023-04-04T09:56:04.487Z,41.05
2023-04-04T09:58:38.030Z,38.38
2023-04-04T10:01:10.518Z,39.70
2023-04-04T10:03:39.470Z,39.47
2023-04-04T10:06:07.981Z,40.68
2023-04-04T10:08:35.684Z,38.46
2023-04-04T10:11:11.836Z,38.93
2023-04-04T10:13:42.013Z,40.38
2023-04-04T10:16:09.504Z,38.78
2023-04-04T10:18:37.377Z,38.89
2023-04-04T10:23:37.220Z,35.12
2023-04-04T10:26:04.244Z,37.04
2023-04-04T10:28:31.589Z,35.39
2023-04-04T10:31:20.609Z,35.36
2023-04-04T10:34:02.233Z,35.44
2023-04-04T10:36:34.924Z,32.45
2023-04-04T10:39:27.865Z,33.21
2023-04-04T10:41:56.654Z,33.39
2023-04-04T10:44:29.732Z,35.01
2023-04-04T10:47:01.324Z,37.18
2023-04-04T10:49:29.995Z,38.84
2023-04-04T10:51:57.480Z,36.51
2023-04-04T10:54:26.262Z,36.70
2023-04-04T10:56:53.542Z,37.44
2023-04-04T10:59:20.461Z,37.79
2023-04-04T11:01:57.088Z,37.26
2023-04-04T11:04:32.402Z,35.36
2023-04-04T11:07:12.471Z,35.94
2023-04-04T11:09:52.117Z,32.85
2023-04-04T11:12:48.345Z,30.83
2023-04-04T11:15:15.365Z,32.30
2023-04-04T11:18:07.869Z,32.35
2023-04-04T11:20:48.089Z,34.08
2023-04-04T11:23:19.723Z,34.94
2023-04-04T11:25:53.703Z,35.48
2023-04-04T11:28:35.818Z,35.81
2023-04-04T11:31:14.985Z,30.60
2023-04-04T11:34:11.706Z,28.75
2023-04-04T11:36:39.141Z,27.75
2023-04-04T11:39:22.977Z,28.14
2023-04-04T11:42:05.450Z,25.57
2023-04-04T11:44:33.690Z,30.48
2023-04-04T11:47:06.748Z,30.66
2023-04-04T11:49:36.480Z,32.47
2023-04-04T11:52:09.185Z,31.38
2023-04-04T11:54:37.900Z,31.50
2023-04-04T11:57:08.799Z,31.71
2023-04-04T11:59:40.471Z,32.21
2023-04-04T12:02:09.437Z,33.20
2023-04-04T12:04:38.202Z,33.81
2023-04-04T12:07:08.011Z,31.57
2023-04-04T12:09:35.051Z,31.81
2023-04-04T12:12:01.962Z,28.32
2023-04-04T12:14:29.309Z,28.28
2023-04-04T12:17:00.017Z,26.06
2023-04-04T12:19:28.903Z,26.61
2023-04-04T12:21:57.851Z,29.51
2023-04-04T12:24:24.805Z,28.53
2023-04-04T12:26:53.135Z,28.47
2023-04-04T12:29:22.698Z,29.45
2023-04-04T12:31:51.994Z,29.53
2023-04-04T12:34:22.878Z,27.60
2023-04-04T12:36:52.960Z,26.64
2023-04-04T12:39:21.148Z,26.46
2023-04-04T12:41:51.512Z,25.52
2023-04-04T12:44:39.672Z,27.25
2023-04-04T12:47:08.118Z,24.54
2023-04-04T12:49:40.129Z,25.23
2023-04-04T12:52:09.253Z,26.29
2023-04-04T12:54:41.099Z,25.59
2023-04-04T12:57:08.391Z,27.70
2023-04-04T12:59:36.511Z,28.89
2023-04-04T13:02:08.153Z,26.93
2023-04-04T13:04:35.467Z,27.48
2023-04-04T13:07:03.508Z,29.29
2023-04-04T13:09:30.614Z,28.03
2023-04-04T13:12:02.929Z,27.06
2023-04-04T13:14:59.248Z,28.60
2023-04-04T13:17:26.486Z,28.28
2023-04-04T13:19:53.384Z,30.83
2023-04-04T13:22:20.160Z,32.20
2023-04-04T13:24:47.050Z,31.86
2023-04-04T13:27:13.884Z,32.74
2023-04-04T13:29:40.862Z,33.65
2023-04-04T13:32:07.671Z,30.66
2023-04-04T13:34:36.304Z,28.12
2023-04-04T13:37:03.289Z,26.14
2023-04-04T13:39:30.114Z,24.73
2023-04-04T13:41:57.610Z,25.45
2023-04-04T13:44:26.044Z,26.54
2023-04-04T13:46:54.124Z,27.32
2023-04-04T13:49:22.083Z,29.30
2023-04-04T13:51:49.002Z,29.67
2023-04-04T13:54:15.911Z,31.76
2023-04-04T13:56:42.725Z,33.37
2023-04-04T13:59:10.851Z,31.73
2023-04-04T14:01:38.816Z,31.14
2023-04-04T14:04:16.587Z,32.35
2023-04-04T14:06:49.982Z,32.90
2023-04-04T14:09:16.832Z,32.15
2023-04-04T14:11:43.854Z,33.42
2023-04-04T14:14:10.732Z,33.57
2023-04-04T14:16:37.779Z,32.81
2023-04-04T14:19:04.841Z,33.70
2023-04-04T14:21:31.652Z,33.29
2023-04-04T14:23:58.573Z,33.76
2023-04-04T14:26:25.607Z,32.40
2023-04-04T14:28:52.569Z,31.49
2023-04-04T14:31:19.559Z,33.34
2023-04-04T14:33:46.508Z,32.50
2023-04-04T14:36:13.251Z,31.82
2023-04-04T14:38:40.047Z,33.58
2023-04-04T14:41:06.876Z,32.31
2023-04-04T14:43:33.785Z,32.29
2023-04-04T14:46:00.689Z,33.12
2023-04-04T14:48:27.676Z,31.92
2023-04-04T14:50:54.484Z,33.12
2023-04-04T14:53:21.782Z,34.63
2023-04-04T14:55:48.628Z,34.15
2023-04-04T14:58:15.555Z,33.01
2023-04-04T15:00:42.561Z,34.74
2023-04-04T15:03:09.661Z,34.52
2023-04-04T15:05:36.798Z,35.00
2023-04-04T15:08:04.263Z,36.31
2023-04-04T15:10:31.483Z,35.43
2023-04-04T15:12:58.336Z,35.89
2023-04-04T15:15:27.827Z,35.15
2023-04-04T15:17:54.636Z,35.33
2023-04-04T15:20:22.098Z,36.17
2023-04-04T15:22:48.986Z,35.64
2023-04-04T15:25:15.857Z,36.92
2023-04-04T15:27:42.696Z,36.88
2023-04-04T15:30:09.873Z,35.36
2023-04-04T15:32:36.851Z,36.35
2023-04-04T15:35:04.756Z,35.50
